Current Weather Around the State

 

KBDE - Baudette, Minnesota, USA
Distance from station: N 88mi, 142km
Updated: Sun, 14-Jul-2024 10:53pm CDT
Clear
Clear
 Wind from calm
Wind: Calm
Temperature: 66°F, 19°C
Dew Point: 61°F, 16°C
Humidity: 83%
Barometer: 29.85 inHg, 1010.8 hPa
Clouds: Clear
Visibility: 10 miles, 16 km
2024/07/15 03:53 KBDE 150353Z AUTO 00000KT 10SM CLR 19/16 A2985 RMK AO2 SLP107 T01940161
KBJI - Bemidji, Minnesota, USA
Distance from station: NW 3mi, 4km
Updated: Sun, 14-Jul-2024 11:15pm CDT
Partly cloudy
Partly cloudy
 Wind from calm
Wind: Calm
Temperature: 64°F, 18°C
Dew Point: 61°F, 16°C
Humidity: 88%
Barometer: 29.88 inHg, 1011.9 hPa
Clouds: Partly cloudy
Visibility: 10 miles, 16 km
Cloud details: Partly cloudy 12000 ft
2024/07/15 04:15 KBJI 150415Z AUTO 00000KT 10SM SCT120 18/16 A2988 RMK AO2 T01840160
 
KDLH - Duluth, Minnesota, USA
Distance from station: NW 6mi, 10km
Updated: Sun, 14-Jul-2024 10:55pm CDT
Clear
Clear
 Wind from NW
Wind: NW 5 mph, 7 km/h
Temperature: 72°F, 22°C
Dew Point: 59°F, 15°C
Humidity: 65%
Barometer: 29.87 inHg, 1011.5 hPa
Clouds: Clear
Visibility: 10 miles, 16 km
2024/07/15 03:55 KDLH 150355Z 32004KT 10SM CLR 22/15 A2987 RMK AO2 SLP108 T02170150
KBRD - Brainerd, Minnesota, USA
Distance from station: SSE 82mi, 132km
Updated: Sun, 14-Jul-2024 10:53pm CDT
Clear
Clear
 Wind from calm
Wind: Calm
Temperature: 68°F, 20°C
Dew Point: 64°F, 18°C
Humidity: 88%
Barometer: 29.87 inHg, 1011.5 hPa
Clouds: Clear
Visibility: 9 miles, 14 km
2024/07/15 03:53 KBRD 150353Z AUTO 00000KT 9SM CLR 20/18 A2987 RMK AO2 SLP110 T02000183
 
KSTC - St. Cloud, Minnesota, USA
Distance from station: NNE 20mi, 32km
Updated: Sun, 14-Jul-2024 10:53pm CDT
Clear
Clear
 Wind from calm
Wind: Calm
Temperature: 72°F, 22°C
Dew Point: 68°F, 20°C
Humidity: 88%
Barometer: 29.86 inHg, 1011.2 hPa
Clouds: Clear
Visibility: 10 miles, 16 km
2024/07/15 03:53 KSTC 150353Z 00000KT 10SM CLR 22/20 A2986 RMK AO2 SLP115 T02170200 $
KBDH - Willmar Muni, Minnesota, USA
Distance from station: WSW 47mi, 76km
Updated: Sun, 14-Jul-2024 11:15pm CDT
Clear
Clear
 Wind from calm
Wind: Calm
Temperature: 70°F, 21°C
Dew Point: 70°F, 21°C
Humidity: 100%
Barometer: 29.88 inHg, 1011.9 hPa
Clouds: Clear
Visibility: 7 miles, 11 km
2024/07/15 04:15 KBDH 150415Z AUTO 00000KT 7SM CLR 21/21 A2988 RMK AO2
 
KLXL - Little Falls, Minnesota, USA
Distance from station: N 47mi, 76km
Updated: Sun, 14-Jul-2024 11:15pm CDT
Clear
Clear
 Wind from calm
Wind: Calm
Temperature: 66°F, 19°C
Dew Point: 64°F, 18°C
Humidity: 94%
Barometer: 29.87 inHg, 1011.5 hPa
Clouds: Clear
Visibility: 10 miles, 16 km
2024/07/15 04:15 KLXL 150415Z AUTO 00000KT 10SM CLR 19/18 A2987 RMK AO2
KMSP - Minneapolis, Minnesota, USA
Distance from station: ESE 54mi, 87km
Updated: Sun, 14-Jul-2024 10:53pm CDT
Clear
Clear
 Wind from NW
Wind: NW 5 mph, 7 km/h
Temperature: 79°F, 26°C
Dew Point: 66°F, 19°C
Humidity: 65%
Barometer: 29.86 inHg, 1011.2 hPa
Clouds: Clear
Visibility: 10 miles, 16 km
2024/07/15 03:53 KMSP 150353Z 31004KT 10SM CLR 26/19 A2986 RMK AO2 SLP103 T02610194
 
KMML - Marshall/Ryan, Minnesota, USA
Distance from station: W 1mi, 2km
Updated: Sun, 14-Jul-2024 10:56pm CDT
Clear
Clear
 Wind from SSW
Wind: SSW 5 mph, 7 km/h
Temperature: 73°F, 23°C
Dew Point: 72°F, 22°C
Humidity: 94%
Barometer: 29.89 inHg, 1012.2 hPa
Clouds: Clear
Visibility: 10 miles, 16 km
2024/07/15 03:56 KMML 150356Z AUTO 21004KT 10SM CLR 23/22 A2989 RMK AO2 SLP117 T02330222
KRST - Rochester, Minnesota, USA
Distance from station: S 8mi, 13km
Updated: Sun, 14-Jul-2024 10:54pm CDT
Clear
Clear
 Wind from NW
Wind: NW 3 mph, 6 km/h
Temperature: 75°F, 24°C
Dew Point: 72°F, 22°C
Humidity: 89%
Barometer: 29.88 inHg, 1011.9 hPa
Clouds: Clear
Visibility: 10 miles, 16 km
2024/07/15 03:54 KRST 150354Z 32003KT 10SM CLR 24/22 A2988 RMK AO2 SLP108 T02390217